createdAt,value
2023-02-24T00:00:38.714Z,5.15
2023-02-24T00:03:11.497Z,5.16
2023-02-24T00:05:42.963Z,5.09
2023-02-24T00:08:12.301Z,5.07
2023-02-24T00:10:42.345Z,5.08
2023-02-24T00:13:12.348Z,5.19
2023-02-24T00:15:42.018Z,5.02
2023-02-24T00:18:12.023Z,4.98
2023-02-24T00:20:39.533Z,5.09
2023-02-24T00:23:09.864Z,5.07
2023-02-24T00:25:39.661Z,4.95
2023-02-24T00:28:09.604Z,5.14
2023-02-24T00:30:39.474Z,5.05
2023-02-24T00:33:12.513Z,4.90
2023-02-24T00:35:42.554Z,4.86
2023-02-24T00:38:13.490Z,5.12
2023-02-24T00:45:10.646Z,4.93
2023-02-24T00:47:40.177Z,4.81
2023-02-24T00:50:11.900Z,4.93
2023-02-24T00:52:41.473Z,4.84
2023-02-24T00:55:15.303Z,4.99
2023-02-24T00:57:45.079Z,4.94
2023-02-24T01:00:16.694Z,4.99
2023-02-24T01:02:47.566Z,4.93
2023-02-24T01:05:17.627Z,4.88
2023-02-24T01:07:47.391Z,4.85
2023-02-24T01:10:18.448Z,4.87
2023-02-24T01:12:54.021Z,4.79
2023-02-24T01:15:23.452Z,4.77
2023-02-24T01:17:51.477Z,4.62
2023-02-24T01:20:20.191Z,4.47
2023-02-24T01:22:57.693Z,4.39
2023-02-24T01:25:26.915Z,4.13
2023-02-24T01:27:55.937Z,3.99
2023-02-24T01:30:23.480Z,3.91
2023-02-24T01:32:53.606Z,3.71
2023-02-24T01:35:25.681Z,3.60
2023-02-24T01:37:53.475Z,3.67
2023-02-24T01:40:26.295Z,3.53
2023-02-24T01:42:56.005Z,3.43
2023-02-24T01:45:30.160Z,3.34
2023-02-24T01:48:10.386Z,3.35
2023-02-24T01:50:39.362Z,3.30
2023-02-24T01:53:08.680Z,3.36
2023-02-24T01:55:51.008Z,3.27
2023-02-24T01:58:28.736Z,3.19
2023-02-24T02:00:57.913Z,3.11
2023-02-24T02:03:35.255Z,3.08
2023-02-24T02:06:11.284Z,3.14
2023-02-24T02:08:45.252Z,3.06
2023-02-24T02:11:23.048Z,2.99
2023-02-24T02:13:55.256Z,2.96
2023-02-24T02:16:26.843Z,2.93
2023-02-24T02:19:33.512Z,3.11
2023-02-24T02:22:35.351Z,2.97
2023-02-24T02:26:05.939Z,3.08
2023-02-24T02:29:10.043Z,3.10
2023-02-24T02:32:35.955Z,3.11
2023-02-24T02:35:32.508Z,2.93
2023-02-24T02:38:27.740Z,2.93
2023-02-24T02:41:31.027Z,2.77
2023-02-24T02:44:21.638Z,2.68
2023-02-24T02:47:37.018Z,2.72
2023-02-24T02:50:55.000Z,2.50
2023-02-24T02:53:49.475Z,2.45
2023-02-24T02:56:34.633Z,2.40
2023-02-24T02:59:12.876Z,2.28
2023-02-24T03:01:47.278Z,2.11
2023-02-24T03:04:23.295Z,2.06
2023-02-24T03:07:02.626Z,2.02
2023-02-24T03:09:45.762Z,1.98
2023-02-24T03:12:23.102Z,2.11
2023-02-24T03:15:04.702Z,2.09
2023-02-24T03:17:46.070Z,2.13
2023-02-24T03:21:07.796Z,2.08
2023-02-24T03:23:50.740Z,2.02
2023-02-24T03:26:53.241Z,1.99
2023-02-24T03:29:50.919Z,2.08
2023-02-24T03:32:55.010Z,2.06
2023-02-24T03:35:36.194Z,1.99
2023-02-24T03:38:06.917Z,1.93
2023-02-24T03:40:35.782Z,2.07
2023-02-24T03:43:19.665Z,1.95
2023-02-24T03:45:50.076Z,2.01
2023-02-24T03:48:21.940Z,1.98
2023-02-24T03:50:53.241Z,1.91
2023-02-24T03:53:48.625Z,1.94
2023-02-24T03:56:58.763Z,1.94
2023-02-24T03:59:57.748Z,1.79
2023-02-24T04:02:33.966Z,1.82
2023-02-24T04:05:21.934Z,1.83
2023-02-24T04:08:05.389Z,2.01
2023-02-24T04:11:23.029Z,2.07
2023-02-24T04:14:24.849Z,1.95
2023-02-24T04:17:30.600Z,1.84
2023-02-24T04:20:29.812Z,1.95
2023-02-24T04:23:15.484Z,1.90
2023-02-24T04:25:53.328Z,1.82
2023-02-24T04:28:27.459Z,1.83
2023-02-24T04:31:10.765Z,1.84
2023-02-24T04:33:41.080Z,1.87
2023-02-24T04:36:12.979Z,1.77
2023-02-24T04:38:43.201Z,1.78
2023-02-24T04:41:21.402Z,1.73
2023-02-24T04:43:52.153Z,1.67
2023-02-24T04:46:23.553Z,1.79
2023-02-24T04:48:53.701Z,1.72
2023-02-24T04:51:23.812Z,1.77
2023-02-24T04:53:55.471Z,1.72
2023-02-24T04:56:25.574Z,1.70
2023-02-24T04:58:56.077Z,1.75
2023-02-24T05:01:24.211Z,1.67
2023-02-24T05:03:52.654Z,1.63
2023-02-24T05:06:21.138Z,1.79
2023-02-24T05:08:48.410Z,1.74
2023-02-24T05:11:21.227Z,1.66
2023-02-24T05:13:48.483Z,1.77
2023-02-24T05:16:20.511Z,1.74
2023-02-24T05:18:50.588Z,1.66
2023-02-24T05:21:35.716Z,1.55
2023-02-24T05:24:08.572Z,1.63
2023-02-24T05:26:43.535Z,1.72
2023-02-24T05:29:12.583Z,1.81
2023-02-24T05:31:42.720Z,1.65
2023-02-24T05:34:17.238Z,1.53
2023-02-24T05:36:49.204Z,1.51
2023-02-24T05:39:19.840Z,1.70
2023-02-24T05:41:50.880Z,1.83
2023-02-24T05:44:22.814Z,1.72
2023-02-24T05:47:00.661Z,1.72
2023-02-24T05:49:34.475Z,1.70
2023-02-24T05:52:09.066Z,1.69
2023-02-24T05:54:45.242Z,1.60
2023-02-24T05:57:21.565Z,1.49
2023-02-24T05:59:51.153Z,1.51
2023-02-24T06:02:27.901Z,1.52
2023-02-24T06:04:57.112Z,1.63
2023-02-24T06:07:34.560Z,1.59
2023-02-24T06:10:10.042Z,1.48
2023-02-24T06:12:40.142Z,1.56
2023-02-24T06:15:10.718Z,1.51
2023-02-24T06:17:39.729Z,1.68
2023-02-24T06:20:15.615Z,1.60
2023-02-24T06:22:44.881Z,1.59
2023-02-24T06:25:14.632Z,1.55
2023-02-24T06:27:45.039Z,1.49
2023-02-24T06:30:15.254Z,1.68
2023-02-24T06:32:45.002Z,1.72
2023-02-24T06:35:15.996Z,1.66
2023-02-24T06:37:45.588Z,1.63
2023-02-24T06:40:18.288Z,1.76
2023-02-24T06:42:55.197Z,1.73
2023-02-24T06:45:26.343Z,1.74
2023-02-24T06:47:56.421Z,1.80
2023-02-24T06:50:23.878Z,1.80
2023-02-24T06:53:00.738Z,2.04
2023-02-24T06:55:30.744Z,1.93
2023-02-24T06:58:04.789Z,1.89
2023-02-24T07:00:41.667Z,2.06
2023-02-24T07:03:17.502Z,2.03
2023-02-24T07:05:54.444Z,1.96
2023-02-24T07:08:27.454Z,2.04
2023-02-24T07:10:59.956Z,2.11
2023-02-24T07:13:30.004Z,2.05
2023-02-24T07:16:11.847Z,2.15
2023-02-24T07:18:43.030Z,2.19
2023-02-24T07:21:13.103Z,2.20
2023-02-24T07:23:45.764Z,2.15
2023-02-24T07:26:23.212Z,2.17
2023-02-24T07:28:55.392Z,2.09
2023-02-24T07:31:26.433Z,2.14
2023-02-24T07:33:57.435Z,2.38
2023-02-24T07:36:30.385Z,2.18
2023-02-24T07:38:59.985Z,2.23
2023-02-24T07:41:31.362Z,2.18
2023-02-24T07:44:03.423Z,2.20
2023-02-24T07:46:33.559Z,2.35
2023-02-24T07:49:03.840Z,2.31
2023-02-24T07:51:33.640Z,2.30
2023-02-24T07:54:03.600Z,2.40
2023-02-24T07:56:34.208Z,2.42
2023-02-24T07:59:09.839Z,2.36
2023-02-24T08:01:49.723Z,2.33
2023-02-24T08:04:27.678Z,2.32
2023-02-24T08:07:02.936Z,2.40
2023-02-24T08:09:47.030Z,2.51
2023-02-24T08:12:22.889Z,2.68
2023-02-24T08:15:00.360Z,2.73
2023-02-24T08:17:30.486Z,2.69
2023-02-24T08:20:12.705Z,2.58
2023-02-24T08:22:52.254Z,2.50
2023-02-24T08:25:36.103Z,2.50
2023-02-24T08:28:15.155Z,2.53
2023-02-24T08:30:46.388Z,2.47
2023-02-24T08:33:23.370Z,2.67
2023-02-24T08:36:02.483Z,2.52
2023-02-24T08:38:44.705Z,2.53
2023-02-24T08:41:21.301Z,2.47
2023-02-24T08:43:51.643Z,2.37
2023-02-24T08:46:36.969Z,2.41
2023-02-24T08:49:10.970Z,2.49
2023-02-24T08:51:44.113Z,2.43
2023-02-24T08:54:32.073Z,2.53
2023-02-24T08:57:08.254Z,2.60
2023-02-24T08:59:38.121Z,2.66
2023-02-24T09:02:23.524Z,2.61
2023-02-24T09:05:04.771Z,2.83
2023-02-24T09:07:41.617Z,3.02
2023-02-24T09:10:19.201Z,3.16
2023-02-24T09:12:49.451Z,3.22
2023-02-24T09:15:20.683Z,3.22
2023-02-24T09:17:51.078Z,3.24
2023-02-24T09:20:27.649Z,3.26
2023-02-24T09:23:07.768Z,3.38
2023-02-24T09:25:49.482Z,3.41
2023-02-24T09:28:32.821Z,3.32
2023-02-24T09:31:04.989Z,3.52
2023-02-24T09:33:42.039Z,3.58
2023-02-24T09:36:30.232Z,3.46
2023-02-24T09:39:01.535Z,3.40
2023-02-24T09:41:54.674Z,3.41
2023-02-24T09:44:48.333Z,3.39
2023-02-24T09:47:57.952Z,3.51
2023-02-24T09:51:02.808Z,3.48
2023-02-24T09:53:41.944Z,3.49
2023-02-24T09:56:42.584Z,3.46
2023-02-24T09:59:51.075Z,3.56
2023-02-24T10:03:00.191Z,3.52
2023-02-24T10:06:15.038Z,3.58
2023-02-24T10:09:11.832Z,3.48
2023-02-24T10:11:55.653Z,3.62
2023-02-24T10:14:43.764Z,3.84
2023-02-24T10:17:40.352Z,4.00
2023-02-24T10:20:40.076Z,4.01
2023-02-24T10:23:34.425Z,3.97
2023-02-24T10:26:34.840Z,3.99
2023-02-24T10:29:33.434Z,4.32
2023-02-24T10:32:53.709Z,4.46
2023-02-24T10:35:26.192Z,4.39
2023-02-24T10:38:05.300Z,4.30
2023-02-24T10:40:56.801Z,4.22
2023-02-24T10:43:30.675Z,4.38
2023-02-24T10:46:17.539Z,4.50
2023-02-24T10:49:00.645Z,4.27
2023-02-24T10:51:42.027Z,4.41
2023-02-24T10:54:44.950Z,4.23
2023-02-24T10:57:36.707Z,4.10
2023-02-24T11:00:32.857Z,4.05
2023-02-24T11:03:22.065Z,3.95
2023-02-24T11:06:04.059Z,3.77
2023-02-24T11:08:39.958Z,3.80
2023-02-24T11:11:30.981Z,3.59
2023-02-24T11:14:23.935Z,3.63
2023-02-24T11:17:14.677Z,3.51
2023-02-24T11:19:55.281Z,3.20
2023-02-24T11:22:41.630Z,2.99
2023-02-24T11:25:42.009Z,2.85
2023-02-24T11:28:54.100Z,2.70
2023-02-24T11:31:42.815Z,2.63
2023-02-24T11:34:54.068Z,2.46
2023-02-24T11:38:09.716Z,2.55
2023-02-24T11:40:53.407Z,2.45
2023-02-24T11:43:33.525Z,2.33
2023-02-24T11:46:39.981Z,2.20
2023-02-24T11:49:47.174Z,2.24
2023-02-24T11:52:33.482Z,2.09
2023-02-24T11:55:42.616Z,2.06
2023-02-24T11:58:46.577Z,1.90
2023-02-24T12:02:00.296Z,1.84
2023-02-24T12:04:51.063Z,1.90
2023-02-24T12:07:48.712Z,1.84
2023-02-24T12:10:28.304Z,1.81
2023-02-24T12:13:51.382Z,1.73
2023-02-24T12:16:53.354Z,1.71
2023-02-24T12:19:44.399Z,1.64
2023-02-24T12:22:18.070Z,1.56
2023-02-24T12:24:52.789Z,1.55
2023-02-24T12:27:42.400Z,1.41
2023-02-24T12:31:12.461Z,1.25
2023-02-24T12:34:12.189Z,1.32
2023-02-24T12:37:39.521Z,1.53
2023-02-24T12:41:26.669Z,1.36
2023-02-24T12:45:17.973Z,1.31
2023-02-24T12:48:15.455Z,1.34
2023-02-24T12:51:09.529Z,1.31
2023-02-24T12:54:05.011Z,1.43
2023-02-24T12:57:13.534Z,1.45
2023-02-24T12:59:44.382Z,1.37
2023-02-24T13:02:40.473Z,1.32
2023-02-24T13:05:53.616Z,1.30
2023-02-24T13:09:02.469Z,1.21
2023-02-24T13:12:15.704Z,1.24
2023-02-24T13:14:50.350Z,1.17
2023-02-24T13:17:27.148Z,1.42
2023-02-24T13:19:57.609Z,1.11
2023-02-24T13:22:33.083Z,1.41
2023-02-24T13:25:09.172Z,1.35
2023-02-24T13:27:43.193Z,1.35
2023-02-24T13:30:15.864Z,1.33
2023-02-24T13:33:01.203Z,1.24
2023-02-24T13:35:37.352Z,1.32
2023-02-24T13:38:23.185Z,1.34
2023-02-24T13:40:53.412Z,1.16
2023-02-24T13:43:30.922Z,1.31
2023-02-24T13:46:18.549Z,1.17
2023-02-24T13:49:51.033Z,1.15
2023-02-24T13:53:09.383Z,1.17
2023-02-24T13:56:39.784Z,1.07
2023-02-24T13:59:36.980Z,0.97
2023-02-24T14:02:22.511Z,1.05
2023-02-24T14:05:00.341Z,0.96
2023-02-24T14:07:39.770Z,1.02
2023-02-24T14:10:25.294Z,1.11
2023-02-24T14:13:22.368Z,1.08
2023-02-24T14:15:53.515Z,1.21
2023-02-24T14:18:29.857Z,1.13
2023-02-24T14:20:59.991Z,1.11
2023-02-24T14:23:34.759Z,1.23
2023-02-24T14:26:18.702Z,1.16
2023-02-24T14:29:03.402Z,1.10
2023-02-24T14:31:35.065Z,1.06
2023-02-24T14:34:09.226Z,1.05
2023-02-24T14:36:46.296Z,0.94
2023-02-24T14:39:21.032Z,0.97
2023-02-24T14:42:11.014Z,1.08
2023-02-24T14:44:52.052Z,1.11
2023-02-24T14:47:29.054Z,1.08
2023-02-24T14:50:05.567Z,1.09
2023-02-24T14:53:05.575Z,1.09
2023-02-24T14:55:47.064Z,1.15
2023-02-24T14:58:57.715Z,1.05
2023-02-24T15:01:57.843Z,0.95
2023-02-24T15:04:37.633Z,0.96
2023-02-24T15:07:28.992Z,0.98
2023-02-24T15:10:02.726Z,0.95
2023-02-24T15:12:57.436Z,0.94
2023-02-24T15:15:38.577Z,0.92
2023-02-24T15:18:29.713Z,1.01
2023-02-24T15:21:08.049Z,1.02
2023-02-24T15:23:39.062Z,0.90
2023-02-24T15:26:33.197Z,1.00
2023-02-24T15:29:26.798Z,0.86
2023-02-24T15:32:01.054Z,0.79
2023-02-24T15:34:36.944Z,0.69
2023-02-24T15:37:42.412Z,0.67
2023-02-24T15:40:25.940Z,0.62
2023-02-24T15:43:11.857Z,0.73
2023-02-24T15:45:42.053Z,0.86
2023-02-24T15:48:26.856Z,0.82
2023-02-24T15:51:06.037Z,0.70
2023-02-24T15:53:36.153Z,0.60
2023-02-24T15:56:06.239Z,0.70
2023-02-24T15:58:41.461Z,0.72
2023-02-24T16:06:21.678Z,0.79
2023-02-24T16:08:58.039Z,0.85
2023-02-24T16:11:39.854Z,0.86
2023-02-24T16:14:18.075Z,0.91
2023-02-24T16:16:48.337Z,0.89
2023-02-24T16:19:18.475Z,1.00
2023-02-24T16:21:48.552Z,1.01
2023-02-24T16:24:21.177Z,1.01
2023-02-24T16:26:51.640Z,0.96
2023-02-24T16:29:21.728Z,0.98
2023-02-24T16:31:52.022Z,1.12
2023-02-24T16:34:22.277Z,1.09
2023-02-24T16:36:52.328Z,1.08
2023-02-24T16:39:22.439Z,1.05
2023-02-24T16:41:52.505Z,1.12
2023-02-24T16:44:23.468Z,0.97
2023-02-24T16:46:53.536Z,1.01
2023-02-24T16:49:24.151Z,1.14
2023-02-24T16:51:57.215Z,1.16
2023-02-24T16:54:29.348Z,1.14
2023-02-24T16:56:59.604Z,1.18
2023-02-24T16:59:29.659Z,1.07
2023-02-24T17:01:59.787Z,1.14
2023-02-24T17:04:32.181Z,1.09
2023-02-24T17:07:02.397Z,1.11
2023-02-24T17:09:33.651Z,1.09
2023-02-24T17:12:04.168Z,1.19
2023-02-24T17:14:34.437Z,1.19
2023-02-24T17:17:04.714Z,1.22
2023-02-24T17:19:32.955Z,1.18
2023-02-24T17:22:01.351Z,1.33
2023-02-24T17:24:30.008Z,1.19
2023-02-24T17:26:59.960Z,1.24
2023-02-24T17:29:29.617Z,1.20
2023-02-24T17:31:59.744Z,1.19
2023-02-24T17:34:29.971Z,1.22
2023-02-24T17:37:00.018Z,1.31
2023-02-24T17:39:30.196Z,1.34
2023-02-24T17:42:00.325Z,1.20
2023-02-24T17:44:30.371Z,1.31
2023-02-24T17:47:00.359Z,1.26
2023-02-24T17:49:30.395Z,1.17
2023-02-24T17:52:00.405Z,1.31
2023-02-24T17:54:30.619Z,1.28
2023-02-24T17:57:00.729Z,1.34
2023-02-24T17:59:30.797Z,1.25
2023-02-24T18:02:02.396Z,1.54
2023-02-24T18:04:32.614Z,1.41
2023-02-24T18:07:02.734Z,1.38
2023-02-24T18:09:32.949Z,1.25
2023-02-24T18:12:05.081Z,1.21
2023-02-24T18:14:35.463Z,1.28
2023-02-24T18:17:05.516Z,1.37
2023-02-24T18:19:35.597Z,1.33
2023-02-24T18:22:05.922Z,1.29
2023-02-24T18:24:39.337Z,1.33
2023-02-24T18:27:09.504Z,1.30
2023-02-24T18:29:39.640Z,1.31
2023-02-24T18:32:10.794Z,1.37
2023-02-24T18:34:40.933Z,1.31
2023-02-24T18:37:11.091Z,1.44
2023-02-24T18:39:41.205Z,1.34
2023-02-24T18:42:15.141Z,1.39
2023-02-24T18:44:45.261Z,1.34
2023-02-24T18:47:13.652Z,1.37
2023-02-24T18:49:42.001Z,1.35
2023-02-24T18:52:11.846Z,1.33
2023-02-24T18:54:39.675Z,1.35
2023-02-24T18:57:07.464Z,1.35
2023-02-24T18:59:35.822Z,1.32
2023-02-24T19:02:04.261Z,1.33
2023-02-24T19:04:32.793Z,1.34
2023-02-24T19:07:01.416Z,1.36
2023-02-24T19:09:29.518Z,1.46
2023-02-24T19:11:59.136Z,1.53
2023-02-24T19:14:28.254Z,1.49
2023-02-24T19:16:55.686Z,1.43
2023-02-24T19:19:24.688Z,1.43
2023-02-24T19:21:52.741Z,1.43
2023-02-24T19:24:21.858Z,1.59
2023-02-24T19:26:52.653Z,1.59
2023-02-24T19:29:22.444Z,1.61
2023-02-24T19:31:54.324Z,1.72
2023-02-24T19:34:24.653Z,1.68
2023-02-24T19:36:54.429Z,1.53
2023-02-24T19:39:24.412Z,1.73
2023-02-24T19:41:54.937Z,1.74
2023-02-24T19:44:25.209Z,1.65
2023-02-24T19:46:55.238Z,1.67
2023-02-24T19:49:25.997Z,1.78
2023-02-24T19:51:59.300Z,1.80
2023-02-24T19:54:29.046Z,1.85
2023-02-24T19:57:00.353Z,1.84
2023-02-24T19:59:29.185Z,1.71
2023-02-24T20:01:59.317Z,1.78
2023-02-24T20:04:29.175Z,1.86
2023-02-24T20:06:59.315Z,1.81
2023-02-24T20:09:29.105Z,1.82
2023-02-24T20:12:00.772Z,1.91
2023-02-24T20:14:30.875Z,1.91
2023-02-24T20:17:00.835Z,1.85
2023-02-24T20:19:29.108Z,1.72
2023-02-24T20:21:57.483Z,1.71
2023-02-24T20:24:27.088Z,1.77
2023-02-24T20:26:54.419Z,1.71
2023-02-24T20:29:23.054Z,1.70
2023-02-24T20:31:51.469Z,1.79
2023-02-24T20:34:19.648Z,1.90
2023-02-24T20:36:48.211Z,1.87
2023-02-24T20:39:16.659Z,1.82
2023-02-24T20:41:45.624Z,1.82
2023-02-24T20:44:13.326Z,1.83
2023-02-24T20:46:41.920Z,1.86
2023-02-24T20:49:15.040Z,1.98
2023-02-24T20:51:45.203Z,1.87
2023-02-24T20:54:16.785Z,1.90
2023-02-24T20:56:46.829Z,1.99
2023-02-24T20:59:22.045Z,1.87
2023-02-24T21:01:51.761Z,1.88
2023-02-24T21:04:22.116Z,1.90
2023-02-24T21:06:52.100Z,1.88
2023-02-24T21:09:22.341Z,1.88
2023-02-24T21:11:51.922Z,1.90
2023-02-24T21:14:23.017Z,1.95
2023-02-24T21:16:53.037Z,2.07
2023-02-24T21:19:21.539Z,2.02
2023-02-24T21:21:49.958Z,1.93
2023-02-24T21:24:18.443Z,1.94
2023-02-24T21:26:47.545Z,2.00
2023-02-24T21:29:15.261Z,2.04
2023-02-24T21:31:44.055Z,2.12
2023-02-24T21:34:12.322Z,2.07
2023-02-24T21:36:40.495Z,2.09
2023-02-24T21:39:14.646Z,2.10
2023-02-24T21:41:45.375Z,2.08
2023-02-24T21:44:15.695Z,2.07
2023-02-24T21:46:45.828Z,2.09
2023-02-24T21:49:18.317Z,2.09
2023-02-24T21:51:51.624Z,2.00
2023-02-24T21:54:22.131Z,2.13
2023-02-24T21:56:52.594Z,2.16
2023-02-24T21:59:22.937Z,2.08
2023-02-24T22:01:54.313Z,2.12
2023-02-24T22:04:24.568Z,2.33
2023-02-24T22:06:54.747Z,2.17
2023-02-24T22:09:25.632Z,2.13
2023-02-24T22:11:53.303Z,2.04
2023-02-24T22:14:21.441Z,2.12
2023-02-24T22:16:51.551Z,2.24
2023-02-24T22:19:21.315Z,2.18
2023-02-24T22:21:51.409Z,2.14
2023-02-24T22:24:21.137Z,2.29
2023-02-24T22:26:51.160Z,2.22
2023-02-24T22:29:21.299Z,2.33
2023-02-24T22:31:51.290Z,2.26
2023-02-24T22:34:21.064Z,2.29
2023-02-24T22:36:50.870Z,2.23
2023-02-24T22:39:20.783Z,2.53
2023-02-24T22:41:52.287Z,2.34
2023-02-24T22:44:22.324Z,2.37
2023-02-24T22:46:52.376Z,2.39
2023-02-24T22:49:22.242Z,2.43
2023-02-24T22:51:51.917Z,2.42
2023-02-24T22:54:21.936Z,2.39
2023-02-24T22:56:55.998Z,2.49
2023-02-24T22:59:24.571Z,2.49
2023-02-24T23:01:51.782Z,2.64
2023-02-24T23:04:21.465Z,2.48
2023-02-24T23:06:53.588Z,2.32
2023-02-24T23:09:21.916Z,2.33
2023-02-24T23:11:51.870Z,2.42
2023-02-24T23:14:20.707Z,2.42
2023-02-24T23:16:55.608Z,2.42
2023-02-24T23:19:25.973Z,2.59
2023-02-24T23:21:56.505Z,2.59
2023-02-24T23:24:26.518Z,2.50
2023-02-24T23:26:57.732Z,2.41
2023-02-24T23:29:28.044Z,2.49
2023-02-24T23:31:59.235Z,2.44
2023-02-24T23:34:29.301Z,2.53
2023-02-24T23:36:59.283Z,2.53
2023-02-24T23:39:29.357Z,2.53
2023-02-24T23:41:59.277Z,2.57
2023-02-24T23:44:29.036Z,2.60
2023-02-24T23:46:59.782Z,2.58
2023-02-24T23:49:39.251Z,2.53
2023-02-24T23:52:13.826Z,2.69
2023-02-24T23:54:42.421Z,2.52
2023-02-24T23:57:11.548Z,2.46
2023-02-24T23:59:39.448Z,2.33
